Pruszkow, Poland
Current Conditions -  °F | °C
As of 8:30 AM on Wednesday 22 Oct 2014 (Local Time) from EPWA Reporting Station
Clear Clear  
Wind Chill: 50°   Ceiling: Unl
Heat Index: 50°   Visibility: 5mi
Dew Point: 48°   Wind: 9mph
Humidity: 94%   Direction: 110°ESE
Pressure: 29.56"   Gusts: NA
Location:  52.22°N, 20.82°E
Report Text: EPWA 220630Z 11008KT 8000 NSC 10/09 Q1001 NOSIG
Loading
Personal Weather Stations






























Interactive Weather Map
Tropical Storm Tracking
New forecast layout! Learn more

10-Day Weather Forecast

Advertisements
Track Severe Weather on mobile